createdAt,value
2019-03-20T00:01:01.442Z,96.50
2019-03-20T00:06:06.491Z,96.40
2019-03-20T00:11:11.564Z,96.20
2019-03-20T00:16:16.425Z,96.00
2019-03-20T00:21:22.717Z,95.70
2019-03-20T00:26:27.784Z,95.90
2019-03-20T00:31:32.671Z,96.00
2019-03-20T00:36:37.648Z,96.80
2019-03-20T00:41:42.511Z,96.60
2019-03-20T00:46:47.753Z,96.90
2019-03-20T00:51:55.339Z,96.60
2019-03-20T00:57:00.631Z,96.50
2019-03-20T01:02:05.970Z,96.40
2019-03-20T01:07:11.000Z,96.60
2019-03-20T01:12:17.723Z,96.70
2019-03-20T01:17:22.658Z,96.60
2019-03-20T01:22:28.551Z,96.90
2019-03-20T01:27:33.523Z,96.90
2019-03-20T01:32:38.737Z,96.70
2019-03-20T01:37:43.792Z,96.00
2019-03-20T01:42:48.778Z,96.20
2019-03-20T01:47:54.293Z,96.40
2019-03-20T01:52:59.526Z,96.20
2019-03-20T01:58:04.703Z,96.60
2019-03-20T02:03:09.889Z,96.60
2019-03-20T02:08:16.351Z,96.80
2019-03-20T02:13:22.004Z,96.70
2019-03-20T02:18:28.367Z,96.30
2019-03-20T02:23:34.683Z,96.30
2019-03-20T02:28:40.753Z,96.80
2019-03-20T02:33:47.605Z,97.10
2019-03-20T02:38:53.583Z,96.60
2019-03-20T02:43:59.878Z,96.50
2019-03-20T02:49:05.445Z,96.70
2019-03-20T02:54:11.773Z,96.70
2019-03-20T02:59:18.056Z,96.60
2019-03-20T03:04:23.978Z,96.50
2019-03-20T03:09:29.369Z,96.20
2019-03-20T03:14:34.448Z,96.60
2019-03-20T03:19:39.639Z,96.20
2019-03-20T03:24:44.732Z,96.20
2019-03-20T03:29:49.814Z,96.10
2019-03-20T03:34:56.570Z,96.30
2019-03-20T03:40:01.746Z,96.20
2019-03-20T03:45:09.908Z,96.20
2019-03-20T03:50:15.101Z,96.30
2019-03-20T03:55:20.251Z,96.70
2019-03-20T04:00:25.240Z,96.60
2019-03-20T04:05:30.412Z,97.40
2019-03-20T04:10:35.686Z,97.10
2019-03-20T04:15:40.754Z,98.40
2019-03-20T04:20:45.799Z,98.50
2019-03-20T04:25:50.889Z,98.30
2019-03-20T04:30:55.957Z,98.00
2019-03-20T04:36:01.440Z,98.40
2019-03-20T04:41:06.685Z,98.80
2019-03-20T04:46:11.813Z,98.30
2019-03-20T04:51:17.322Z,98.40
2019-03-20T04:56:22.509Z,98.50
2019-03-20T05:01:27.595Z,98.60
2019-03-20T05:06:32.556Z,98.10
2019-03-20T05:11:37.612Z,98.20
2019-03-20T05:16:42.690Z,97.60
2019-03-20T05:21:47.553Z,97.60
2019-03-20T05:26:52.455Z,97.70
2019-03-20T05:31:57.526Z,97.50
2019-03-20T05:37:10.435Z,98.10
2019-03-20T05:42:09.669Z,98.10
2019-03-20T05:47:14.573Z,98.50
2019-03-20T05:52:19.643Z,98.50
2019-03-20T05:57:24.739Z,98.40
2019-03-20T06:02:29.633Z,98.20
2019-03-20T06:07:34.596Z,98.30
2019-03-20T06:12:39.788Z,98.30
2019-03-20T06:17:46.733Z,98.60
2019-03-20T06:22:51.272Z,98.60
2019-03-20T06:27:56.127Z,98.50
2019-03-20T06:33:01.201Z,98.90
2019-03-20T06:38:06.497Z,98.70
2019-03-20T06:43:11.636Z,98.70
2019-03-20T06:48:16.600Z,98.60
2019-03-20T06:53:21.692Z,98.40
2019-03-20T06:58:26.770Z,98.00
2019-03-20T07:03:40.560Z,97.60
2019-03-20T07:09:12.436Z,97.10
2019-03-20T07:14:17.660Z,96.70
2019-03-20T07:19:22.694Z,96.50
2019-03-20T07:24:27.651Z,96.10
2019-03-20T07:29:32.818Z,95.00
2019-03-20T07:34:37.764Z,93.80
2019-03-20T07:39:43.123Z,93.50
2019-03-20T07:44:48.284Z,92.80
2019-03-20T07:49:55.316Z,91.50
2019-03-20T07:55:00.441Z,89.80
2019-03-20T08:00:08.842Z,84.50
2019-03-20T08:05:14.037Z,82.20
2019-03-20T08:10:20.116Z,79.80
2019-03-20T08:15:25.162Z,79.70
2019-03-20T08:20:30.722Z,76.50
2019-03-20T08:25:35.785Z,74.00
2019-03-20T08:30:40.737Z,73.80
2019-03-20T08:35:45.764Z,67.80
2019-03-20T08:40:50.878Z,66.10
2019-03-20T08:45:55.821Z,66.10
2019-03-20T08:51:00.791Z,63.20
2019-03-20T08:56:05.871Z,60.20
2019-03-20T09:01:10.737Z,60.50
2019-03-20T09:06:15.739Z,62.50
2019-03-20T09:11:20.625Z,57.80
2019-03-20T09:16:25.784Z,59.30
2019-03-20T09:21:30.587Z,57.80
2019-03-20T09:26:35.541Z,54.40
2019-03-20T09:31:40.441Z,53.40
2019-03-20T09:36:45.418Z,51.40
2019-03-20T09:41:50.524Z,50.00
2019-03-20T09:46:55.539Z,49.40
2019-03-20T09:52:00.803Z,52.70
2019-03-20T09:57:05.964Z,51.00
2019-03-20T10:02:11.006Z,48.10
2019-03-20T10:07:15.989Z,47.40
2019-03-20T10:12:21.040Z,47.10
2019-03-20T10:17:25.912Z,47.00
2019-03-20T10:22:30.885Z,44.50
2019-03-20T10:27:35.951Z,45.10
2019-03-20T10:32:40.821Z,45.00
2019-03-20T10:37:45.881Z,45.10
2019-03-20T10:42:50.943Z,46.00
2019-03-20T10:47:55.865Z,47.80
2019-03-20T10:53:00.912Z,45.40
2019-03-20T10:58:06.348Z,47.50
2019-03-20T11:03:11.208Z,48.00
2019-03-20T11:08:16.092Z,47.60
2019-03-20T11:13:21.072Z,46.30
2019-03-20T11:18:25.956Z,45.20
2019-03-20T11:23:30.712Z,45.70
2019-03-20T11:28:35.860Z,45.50
2019-03-20T11:33:40.854Z,44.70
2019-03-20T11:38:46.020Z,44.40
2019-03-20T11:43:51.224Z,42.40
2019-03-20T11:48:56.336Z,44.30
2019-03-20T11:54:01.576Z,41.50
2019-03-20T11:59:06.538Z,41.30
2019-03-20T12:04:11.591Z,44.30
2019-03-20T12:09:16.596Z,44.30
2019-03-20T12:14:21.658Z,45.80
2019-03-20T12:19:26.691Z,45.60
2019-03-20T12:24:31.750Z,45.30
2019-03-20T12:29:36.707Z,46.10
2019-03-20T12:34:42.727Z,46.90
2019-03-20T12:39:53.178Z,45.70
2019-03-20T12:44:55.711Z,47.00
2019-03-20T12:50:02.038Z,46.20
2019-03-20T12:55:12.763Z,47.50
2019-03-20T13:00:28.455Z,46.60
2019-03-20T13:05:33.526Z,46.70
2019-03-20T13:10:39.861Z,46.80
2019-03-20T13:15:46.194Z,46.70
2019-03-20T13:20:52.524Z,46.00
2019-03-20T13:26:00.767Z,47.30
2019-03-20T13:31:12.452Z,46.10
2019-03-20T13:36:18.075Z,44.80
2019-03-20T13:41:24.412Z,46.70
2019-03-20T13:46:31.573Z,45.90
2019-03-20T13:51:36.810Z,43.50
2019-03-20T13:56:42.775Z,41.80
2019-03-20T14:01:48.440Z,41.60
2019-03-20T14:06:54.718Z,43.00
2019-03-20T14:12:01.058Z,42.50
2019-03-20T14:17:07.400Z,43.40
2019-03-20T14:22:13.915Z,44.50
2019-03-20T14:27:20.250Z,45.10
2019-03-20T14:32:26.590Z,43.50
2019-03-20T14:37:34.407Z,44.50
2019-03-20T14:42:39.685Z,45.30
2019-03-20T14:47:46.570Z,43.30
2019-03-20T14:52:52.015Z,44.40
2019-03-20T14:57:58.288Z,46.00
2019-03-20T15:03:04.647Z,46.60
2019-03-20T15:08:10.426Z,47.60
2019-03-20T15:13:16.641Z,49.10
2019-03-20T15:18:22.914Z,49.30
2019-03-20T15:23:29.144Z,50.20
2019-03-20T15:28:35.136Z,50.20
2019-03-20T15:33:40.412Z,51.00
2019-03-20T15:38:46.727Z,51.20
2019-03-20T15:44:01.942Z,52.10
2019-03-20T15:49:02.107Z,52.60
2019-03-20T15:54:07.140Z,53.30
2019-03-20T15:59:12.286Z,53.10
2019-03-20T16:04:17.334Z,54.70
2019-03-20T16:09:22.545Z,54.80
2019-03-20T16:14:27.563Z,56.10
2019-03-20T16:19:32.695Z,56.00
2019-03-20T16:24:37.854Z,56.60
2019-03-20T16:29:42.889Z,57.80
2019-03-20T16:34:47.645Z,58.70
2019-03-20T16:39:52.672Z,58.40
2019-03-20T16:44:57.808Z,59.40
2019-03-20T16:50:03.245Z,60.00
2019-03-20T16:55:10.768Z,61.00
2019-03-20T17:00:32.595Z,60.40
2019-03-20T17:05:37.931Z,60.80
2019-03-20T17:10:47.137Z,61.40
2019-03-20T17:15:52.183Z,61.00
2019-03-20T17:20:58.012Z,61.60
2019-03-20T17:26:03.178Z,61.90
2019-03-20T17:31:08.221Z,61.50
2019-03-20T17:36:13.437Z,61.40
2019-03-20T17:41:18.363Z,61.00
2019-03-20T17:46:23.277Z,60.50
2019-03-20T17:51:28.507Z,60.10
2019-03-20T17:56:33.751Z,60.70
2019-03-20T18:01:38.941Z,60.00
2019-03-20T18:06:43.988Z,60.00
2019-03-20T18:11:49.430Z,59.80
2019-03-20T18:16:55.527Z,60.10
2019-03-20T18:22:00.709Z,59.70
2019-03-20T18:27:05.863Z,59.80
2019-03-20T18:32:11.088Z,60.60
2019-03-20T18:37:16.130Z,60.20
2019-03-20T18:42:21.261Z,60.60
2019-03-20T18:47:26.547Z,60.60
2019-03-20T18:52:31.673Z,60.70
2019-03-20T18:57:36.919Z,60.70
2019-03-20T19:02:42.463Z,61.50
2019-03-20T19:07:47.515Z,61.20
2019-03-20T19:12:52.570Z,61.60
2019-03-20T19:17:58.649Z,62.30
2019-03-20T19:23:03.680Z,63.50
2019-03-20T19:28:08.615Z,63.40
2019-03-20T19:33:13.840Z,63.80
2019-03-20T19:38:20.473Z,64.00
2019-03-20T19:43:26.787Z,64.20
2019-03-20T19:48:31.909Z,64.80
2019-03-20T19:53:37.158Z,65.20
2019-03-20T19:58:42.202Z,65.40
2019-03-20T20:03:47.463Z,65.60
2019-03-20T20:08:52.499Z,65.90
2019-03-20T20:13:58.644Z,66.40
2019-03-20T20:19:03.708Z,66.80
2019-03-20T20:24:08.927Z,66.90
2019-03-20T20:29:13.995Z,67.20
2019-03-20T20:34:19.137Z,67.20
2019-03-20T20:39:24.272Z,67.70
2019-03-20T20:44:29.911Z,68.80
2019-03-20T20:49:35.064Z,68.40
2019-03-20T20:54:40.215Z,68.60
2019-03-20T20:59:45.245Z,68.80
2019-03-20T21:04:50.473Z,69.20
2019-03-20T21:09:55.453Z,69.10
2019-03-20T21:15:00.639Z,69.50
2019-03-20T21:20:06.878Z,69.90
2019-03-20T21:25:16.059Z,70.00
2019-03-20T21:30:48.038Z,70.90
2019-03-20T21:36:24.459Z,71.40
2019-03-20T21:41:32.442Z,71.80
2019-03-20T21:46:59.823Z,71.60
2019-03-20T21:52:04.648Z,72.20
2019-03-20T21:57:27.646Z,72.00
2019-03-20T22:02:45.354Z,72.30
2019-03-20T22:07:50.230Z,72.40
2019-03-20T22:13:18.928Z,72.90
2019-03-20T22:18:48.579Z,73.20
2019-03-20T22:24:20.205Z,73.60
2019-03-20T22:29:25.953Z,74.30
2019-03-20T22:34:59.340Z,73.90
2019-03-20T22:40:18.861Z,74.40
2019-03-20T22:45:43.276Z,74.20
2019-03-20T22:51:16.365Z,74.80
2019-03-20T22:56:24.652Z,74.90
2019-03-20T23:01:35.637Z,75.60
2019-03-20T23:06:40.679Z,76.20
2019-03-20T23:11:45.729Z,76.30
2019-03-20T23:16:50.924Z,76.70
2019-03-20T23:21:55.945Z,76.50
2019-03-20T23:27:04.062Z,77.50
2019-03-20T23:32:09.250Z,78.10
2019-03-20T23:37:14.849Z,78.40
2019-03-20T23:42:20.094Z,78.30
2019-03-20T23:47:28.094Z,78.90
2019-03-20T23:52:33.244Z,79.60
2019-03-20T23:57:38.503Z,81.00
